<?xml version="1.0" encoding="UTF-8" standalone="no" ?>
<gpx xmlns="http://www.topografix.com/GPX/1/1" xmlns:xsi="http://www.w3.org/2001/XMLSchema-instance" xsi:schemaLocation="http://www.topografix.com/GPX/1/1 http://www.topografix.com/GPX/1/1/gpx.xsd" version="1.1" creator="VisuGPX - https://www.visugpx.com">
  <metadata>
    <name>Coiron/Maisod</name>
    <desc><![CDATA[départ parking du stade de Coiron ; suivre le GRP qui vous conduira à Maisod en longeant le lac face à Bellecin ;prendre à droite les grandes allées pour rejoindre Meussia sur une partie de l'ancienne voie romaine et le PR puis rejoindre le GRP tour du lac pour retour au point de départ; 
randonnée facile sans risque juste la distance (peut etre réduite en  prenant la voie romaine de suite versle lac -6km) ]]></desc>
  </metadata>
  <trk>
    <name><![CDATA[8393761-Coiron>]]></name>
    <trkseg>
      <trkpt lat="46.50956" lon="5.70383">
        <ele>534</ele>
        <time>2018-03-01T16:56:11Z</time>
      </trkpt>
      <trkpt lat="46.50732" lon="5.70112">
        <ele>532</ele>
        <time>2018-03-01T16:57:11Z</time>
      </trkpt>
      <trkpt lat="46.50662" lon="5.70022">
        <ele>531</ele>
        <time>2018-03-01T16:58:11Z</time>
      </trkpt>
      <trkpt lat="46.50634" lon="5.70001">
        <ele>531</ele>
        <time>2018-03-01T16:59:11Z</time>
      </trkpt>
      <trkpt lat="46.5062" lon="5.69986">
        <ele>531</ele>
        <time>2018-03-01T17:00:11Z</time>
      </trkpt>
      <trkpt lat="46.50611" lon="5.69964">
        <ele>531</ele>
        <time>2018-03-01T17:01:11Z</time>
      </trkpt>
      <trkpt lat="46.50604" lon="5.69934">
        <ele>532</ele>
        <time>2018-03-01T17:02:11Z</time>
      </trkpt>
      <trkpt lat="46.50594" lon="5.69908">
        <ele>532</ele>
        <time>2018-03-01T17:03:11Z</time>
      </trkpt>
      <trkpt lat="46.50541" lon="5.69858">
        <ele>532</ele>
        <time>2018-03-01T17:04:11Z</time>
      </trkpt>
      <trkpt lat="46.50479" lon="5.69773">
        <ele>533</ele>
        <time>2018-03-01T17:05:11Z</time>
      </trkpt>
      <trkpt lat="46.50454" lon="5.69725">
        <ele>534</ele>
        <time>2018-03-01T17:06:11Z</time>
      </trkpt>
      <trkpt lat="46.50437" lon="5.69686">
        <ele>535</ele>
        <time>2018-03-01T17:07:11Z</time>
      </trkpt>
      <trkpt lat="46.5042" lon="5.69657">
        <ele>536</ele>
        <time>2018-03-01T17:08:11Z</time>
      </trkpt>
      <trkpt lat="46.50364" lon="5.69623">
        <ele>531</ele>
        <time>2018-03-01T17:09:11Z</time>
      </trkpt>
      <trkpt lat="46.50327" lon="5.69595">
        <ele>528</ele>
        <time>2018-03-01T17:10:11Z</time>
      </trkpt>
      <trkpt lat="46.50293" lon="5.69575">
        <ele>525</ele>
        <time>2018-03-01T17:11:11Z</time>
      </trkpt>
      <trkpt lat="46.50244" lon="5.69554">
        <ele>522</ele>
        <time>2018-03-01T17:12:11Z</time>
      </trkpt>
      <trkpt lat="46.50202" lon="5.69532">
        <ele>523</ele>
        <time>2018-03-01T17:13:11Z</time>
      </trkpt>
      <trkpt lat="46.50185" lon="5.69529">
        <ele>523</ele>
        <time>2018-03-01T17:14:11Z</time>
      </trkpt>
      <trkpt lat="46.50185" lon="5.69529">
        <ele>523</ele>
        <time>2018-03-01T17:15:11Z</time>
      </trkpt>
      <trkpt lat="46.50162" lon="5.69524">
        <ele>524</ele>
        <time>2018-03-01T17:16:11Z</time>
      </trkpt>
      <trkpt lat="46.50143" lon="5.69514">
        <ele>525</ele>
        <time>2018-03-01T17:17:11Z</time>
      </trkpt>
      <trkpt lat="46.50173" lon="5.69462">
        <ele>523</ele>
        <time>2018-03-01T17:18:11Z</time>
      </trkpt>
      <trkpt lat="46.50181" lon="5.6944">
        <ele>523</ele>
        <time>2018-03-01T17:19:11Z</time>
      </trkpt>
      <trkpt lat="46.50165" lon="5.69358">
        <ele>528</ele>
        <time>2018-03-01T17:20:11Z</time>
      </trkpt>
      <trkpt lat="46.50246" lon="5.69334">
        <ele>514</ele>
        <time>2018-03-01T17:21:11Z</time>
      </trkpt>
      <trkpt lat="46.50237" lon="5.69282">
        <ele>511</ele>
        <time>2018-03-01T17:22:11Z</time>
      </trkpt>
      <trkpt lat="46.50175" lon="5.6922">
        <ele>518</ele>
        <time>2018-03-01T17:23:11Z</time>
      </trkpt>
      <trkpt lat="46.50104" lon="5.69124">
        <ele>516</ele>
        <time>2018-03-01T17:24:11Z</time>
      </trkpt>
      <trkpt lat="46.50063" lon="5.69022">
        <ele>512</ele>
        <time>2018-03-01T17:25:11Z</time>
      </trkpt>
      <trkpt lat="46.49985" lon="5.68921">
        <ele>520</ele>
        <time>2018-03-01T17:26:11Z</time>
      </trkpt>
      <trkpt lat="46.49973" lon="5.68901">
        <ele>521</ele>
        <time>2018-03-01T17:27:11Z</time>
      </trkpt>
      <trkpt lat="46.50019" lon="5.68804">
        <ele>511</ele>
        <time>2018-03-01T17:28:11Z</time>
      </trkpt>
      <trkpt lat="46.50011" lon="5.68736">
        <ele>507</ele>
        <time>2018-03-01T17:29:11Z</time>
      </trkpt>
      <trkpt lat="46.49969" lon="5.68725">
        <ele>512</ele>
        <time>2018-03-01T17:30:11Z</time>
      </trkpt>
      <trkpt lat="46.49931" lon="5.6871">
        <ele>513</ele>
        <time>2018-03-01T17:31:11Z</time>
      </trkpt>
      <trkpt lat="46.49884" lon="5.68651">
        <ele>515</ele>
        <time>2018-03-01T17:32:11Z</time>
      </trkpt>
      <trkpt lat="46.49826" lon="5.68735">
        <ele>525</ele>
        <time>2018-03-01T17:33:11Z</time>
      </trkpt>
      <trkpt lat="46.49749" lon="5.6882">
        <ele>527</ele>
        <time>2018-03-01T17:34:11Z</time>
      </trkpt>
      <trkpt lat="46.49706" lon="5.68893">
        <ele>527</ele>
        <time>2018-03-01T17:35:11Z</time>
      </trkpt>
      <trkpt lat="46.49703" lon="5.68938">
        <ele>526</ele>
        <time>2018-03-01T17:36:11Z</time>
      </trkpt>
      <trkpt lat="46.49664" lon="5.68929">
        <ele>528</ele>
        <time>2018-03-01T17:37:11Z</time>
      </trkpt>
      <trkpt lat="46.49652" lon="5.68922">
        <ele>528</ele>
        <time>2018-03-01T17:38:11Z</time>
      </trkpt>
      <trkpt lat="46.49652" lon="5.68922">
        <ele>528</ele>
        <time>2018-03-01T17:39:11Z</time>
      </trkpt>
      <trkpt lat="46.49611" lon="5.68897">
        <ele>528</ele>
        <time>2018-03-01T17:40:11Z</time>
      </trkpt>
      <trkpt lat="46.49542" lon="5.68895">
        <ele>526</ele>
        <time>2018-03-01T17:41:11Z</time>
      </trkpt>
      <trkpt lat="46.49506" lon="5.68954">
        <ele>526</ele>
        <time>2018-03-01T17:42:11Z</time>
      </trkpt>
      <trkpt lat="46.49444" lon="5.68982">
        <ele>527</ele>
        <time>2018-03-01T17:43:11Z</time>
      </trkpt>
      <trkpt lat="46.49378" lon="5.69056">
        <ele>526</ele>
        <time>2018-03-01T17:44:11Z</time>
      </trkpt>
      <trkpt lat="46.49272" lon="5.69096">
        <ele>525</ele>
        <time>2018-03-01T17:45:11Z</time>
      </trkpt>
      <trkpt lat="46.49203" lon="5.69147">
        <ele>526</ele>
        <time>2018-03-01T17:46:11Z</time>
      </trkpt>
      <trkpt lat="46.49133" lon="5.69202">
        <ele>528</ele>
        <time>2018-03-01T17:47:11Z</time>
      </trkpt>
      <trkpt lat="46.48993" lon="5.69228">
        <ele>529</ele>
        <time>2018-03-01T17:48:11Z</time>
      </trkpt>
      <trkpt lat="46.48944" lon="5.69216">
        <ele>529</ele>
        <time>2018-03-01T17:49:11Z</time>
      </trkpt>
      <trkpt lat="46.48767" lon="5.69253">
        <ele>527</ele>
        <time>2018-03-01T17:50:11Z</time>
      </trkpt>
      <trkpt lat="46.48622" lon="5.69242">
        <ele>513</ele>
        <time>2018-03-01T17:51:11Z</time>
      </trkpt>
      <trkpt lat="46.48563" lon="5.69235">
        <ele>506</ele>
        <time>2018-03-01T17:52:11Z</time>
      </trkpt>
      <trkpt lat="46.48515" lon="5.69236">
        <ele>503</ele>
        <time>2018-03-01T17:53:11Z</time>
      </trkpt>
      <trkpt lat="46.48477" lon="5.69257">
        <ele>503</ele>
        <time>2018-03-01T17:54:11Z</time>
      </trkpt>
      <trkpt lat="46.48455" lon="5.69296">
        <ele>506</ele>
        <time>2018-03-01T17:55:11Z</time>
      </trkpt>
      <trkpt lat="46.48447" lon="5.69298">
        <ele>507</ele>
        <time>2018-03-01T17:56:11Z</time>
      </trkpt>
      <trkpt lat="46.48447" lon="5.69298">
        <ele>507</ele>
        <time>2018-03-01T17:57:11Z</time>
      </trkpt>
      <trkpt lat="46.48399" lon="5.6931">
        <ele>507</ele>
        <time>2018-03-01T17:58:11Z</time>
      </trkpt>
      <trkpt lat="46.48361" lon="5.69335">
        <ele>509</ele>
        <time>2018-03-01T17:59:11Z</time>
      </trkpt>
      <trkpt lat="46.48327" lon="5.69304">
        <ele>507</ele>
        <time>2018-03-01T18:00:11Z</time>
      </trkpt>
      <trkpt lat="46.48295" lon="5.69176">
        <ele>503</ele>
        <time>2018-03-01T18:01:11Z</time>
      </trkpt>
      <trkpt lat="46.48286" lon="5.69102">
        <ele>500</ele>
        <time>2018-03-01T18:02:11Z</time>
      </trkpt>
      <trkpt lat="46.48243" lon="5.69087">
        <ele>501</ele>
        <time>2018-03-01T18:03:11Z</time>
      </trkpt>
      <trkpt lat="46.4819" lon="5.69043">
        <ele>502</ele>
        <time>2018-03-01T18:04:11Z</time>
      </trkpt>
      <trkpt lat="46.48154" lon="5.69019">
        <ele>504</ele>
        <time>2018-03-01T18:05:11Z</time>
      </trkpt>
      <trkpt lat="46.48127" lon="5.68996">
        <ele>510</ele>
        <time>2018-03-01T18:06:11Z</time>
      </trkpt>
      <trkpt lat="46.48121" lon="5.68909">
        <ele>512</ele>
        <time>2018-03-01T18:07:11Z</time>
      </trkpt>
      <trkpt lat="46.48079" lon="5.68834">
        <ele>514</ele>
        <time>2018-03-01T18:08:11Z</time>
      </trkpt>
      <trkpt lat="46.48017" lon="5.68773">
        <ele>517</ele>
        <time>2018-03-01T18:09:11Z</time>
      </trkpt>
      <trkpt lat="46.47972" lon="5.68747">
        <ele>520</ele>
        <time>2018-03-01T18:10:11Z</time>
      </trkpt>
      <trkpt lat="46.47917" lon="5.68776">
        <ele>521</ele>
        <time>2018-03-01T18:11:11Z</time>
      </trkpt>
      <trkpt lat="46.47858" lon="5.68778">
        <ele>523</ele>
        <time>2018-03-01T18:12:11Z</time>
      </trkpt>
      <trkpt lat="46.47824" lon="5.68837">
        <ele>522</ele>
        <time>2018-03-01T18:13:11Z</time>
      </trkpt>
      <trkpt lat="46.47827" lon="5.68876">
        <ele>523</ele>
        <time>2018-03-01T18:14:11Z</time>
      </trkpt>
      <trkpt lat="46.47817" lon="5.68935">
        <ele>523</ele>
        <time>2018-03-01T18:15:11Z</time>
      </trkpt>
      <trkpt lat="46.47804" lon="5.68992">
        <ele>524</ele>
        <time>2018-03-01T18:16:11Z</time>
      </trkpt>
      <trkpt lat="46.4779" lon="5.69034">
        <ele>524</ele>
        <time>2018-03-01T18:17:11Z</time>
      </trkpt>
      <trkpt lat="46.4778" lon="5.69051">
        <ele>524</ele>
        <time>2018-03-01T18:18:11Z</time>
      </trkpt>
      <trkpt lat="46.47778" lon="5.69071">
        <ele>524</ele>
        <time>2018-03-01T18:19:11Z</time>
      </trkpt>
      <trkpt lat="46.47771" lon="5.691">
        <ele>524</ele>
        <time>2018-03-01T18:20:11Z</time>
      </trkpt>
      <trkpt lat="46.47759" lon="5.69188">
        <ele>523</ele>
        <time>2018-03-01T18:21:11Z</time>
      </trkpt>
      <trkpt lat="46.4775" lon="5.69218">
        <ele>522</ele>
        <time>2018-03-01T18:22:11Z</time>
      </trkpt>
      <trkpt lat="46.47736" lon="5.69234">
        <ele>521</ele>
        <time>2018-03-01T18:23:11Z</time>
      </trkpt>
      <trkpt lat="46.47718" lon="5.69246">
        <ele>520</ele>
        <time>2018-03-01T18:24:11Z</time>
      </trkpt>
      <trkpt lat="46.47636" lon="5.69275">
        <ele>518</ele>
        <time>2018-03-01T18:25:11Z</time>
      </trkpt>
      <trkpt lat="46.47646" lon="5.69309">
        <ele>518</ele>
        <time>2018-03-01T18:26:11Z</time>
      </trkpt>
      <trkpt lat="46.47648" lon="5.69327">
        <ele>517</ele>
        <time>2018-03-01T18:27:11Z</time>
      </trkpt>
      <trkpt lat="46.47684" lon="5.69392">
        <ele>516</ele>
        <time>2018-03-01T18:28:11Z</time>
      </trkpt>
      <trkpt lat="46.47706" lon="5.69443">
        <ele>515</ele>
        <time>2018-03-01T18:29:11Z</time>
      </trkpt>
      <trkpt lat="46.47727" lon="5.69536">
        <ele>516</ele>
        <time>2018-03-01T18:30:11Z</time>
      </trkpt>
      <trkpt lat="46.4776" lon="5.6964">
        <ele>519</ele>
        <time>2018-03-01T18:31:11Z</time>
      </trkpt>
      <trkpt lat="46.47782" lon="5.69721">
        <ele>522</ele>
        <time>2018-03-01T18:32:11Z</time>
      </trkpt>
      <trkpt lat="46.47797" lon="5.69805">
        <ele>525</ele>
        <time>2018-03-01T18:33:11Z</time>
      </trkpt>
      <trkpt lat="46.47802" lon="5.69826">
        <ele>526</ele>
        <time>2018-03-01T18:34:11Z</time>
      </trkpt>
      <trkpt lat="46.47816" lon="5.69844">
        <ele>525</ele>
        <time>2018-03-01T18:35:11Z</time>
      </trkpt>
      <trkpt lat="46.47844" lon="5.69859">
        <ele>525</ele>
        <time>2018-03-01T18:36:11Z</time>
      </trkpt>
      <trkpt lat="46.47853" lon="5.69869">
        <ele>526</ele>
        <time>2018-03-01T18:37:11Z</time>
      </trkpt>
      <trkpt lat="46.47863" lon="5.69902">
        <ele>527</ele>
        <time>2018-03-01T18:38:11Z</time>
      </trkpt>
      <trkpt lat="46.47884" lon="5.69934">
        <ele>529</ele>
        <time>2018-03-01T18:39:11Z</time>
      </trkpt>
      <trkpt lat="46.47911" lon="5.69962">
        <ele>530</ele>
        <time>2018-03-01T18:40:11Z</time>
      </trkpt>
      <trkpt lat="46.47987" lon="5.70012">
        <ele>529</ele>
        <time>2018-03-01T18:41:11Z</time>
      </trkpt>
      <trkpt lat="46.48015" lon="5.70034">
        <ele>529</ele>
        <time>2018-03-01T18:42:11Z</time>
      </trkpt>
      <trkpt lat="46.48082" lon="5.70118">
        <ele>531</ele>
        <time>2018-03-01T18:43:11Z</time>
      </trkpt>
      <trkpt lat="46.48082" lon="5.70133">
        <ele>531</ele>
        <time>2018-03-01T18:44:11Z</time>
      </trkpt>
      <trkpt lat="46.48075" lon="5.70205">
        <ele>532</ele>
        <time>2018-03-01T18:45:11Z</time>
      </trkpt>
      <trkpt lat="46.48076" lon="5.70245">
        <ele>533</ele>
        <time>2018-03-01T18:46:11Z</time>
      </trkpt>
      <trkpt lat="46.48105" lon="5.70415">
        <ele>535</ele>
        <time>2018-03-01T18:47:11Z</time>
      </trkpt>
      <trkpt lat="46.48106" lon="5.70454">
        <ele>535</ele>
        <time>2018-03-01T18:48:11Z</time>
      </trkpt>
      <trkpt lat="46.48191" lon="5.70463">
        <ele>538</ele>
        <time>2018-03-01T18:49:11Z</time>
      </trkpt>
      <trkpt lat="46.48262" lon="5.70476">
        <ele>543</ele>
        <time>2018-03-01T18:50:11Z</time>
      </trkpt>
      <trkpt lat="46.48345" lon="5.70483">
        <ele>544</ele>
        <time>2018-03-01T18:51:11Z</time>
      </trkpt>
      <trkpt lat="46.48427" lon="5.70499">
        <ele>543</ele>
        <time>2018-03-01T18:52:11Z</time>
      </trkpt>
      <trkpt lat="46.48519" lon="5.70506">
        <ele>539</ele>
        <time>2018-03-01T18:53:11Z</time>
      </trkpt>
      <trkpt lat="46.48573" lon="5.70514">
        <ele>535</ele>
        <time>2018-03-01T18:54:11Z</time>
      </trkpt>
      <trkpt lat="46.48612" lon="5.70484">
        <ele>535</ele>
        <time>2018-03-01T18:55:11Z</time>
      </trkpt>
      <trkpt lat="46.48628" lon="5.70462">
        <ele>536</ele>
        <time>2018-03-01T18:56:11Z</time>
      </trkpt>
      <trkpt lat="46.4865" lon="5.70441">
        <ele>538</ele>
        <time>2018-03-01T18:57:11Z</time>
      </trkpt>
      <trkpt lat="46.48701" lon="5.70421">
        <ele>542</ele>
        <time>2018-03-01T18:58:11Z</time>
      </trkpt>
      <trkpt lat="46.48757" lon="5.70376">
        <ele>544</ele>
        <time>2018-03-01T18:59:11Z</time>
      </trkpt>
      <trkpt lat="46.48809" lon="5.70331">
        <ele>543</ele>
        <time>2018-03-01T19:00:11Z</time>
      </trkpt>
      <trkpt lat="46.48931" lon="5.70233">
        <ele>544</ele>
        <time>2018-03-01T19:01:11Z</time>
      </trkpt>
      <trkpt lat="46.48982" lon="5.70293">
        <ele>545</ele>
        <time>2018-03-01T19:02:11Z</time>
      </trkpt>
      <trkpt lat="46.48982" lon="5.70293">
        <ele>545</ele>
        <time>2018-03-01T19:03:11Z</time>
      </trkpt>
      <trkpt lat="46.49126" lon="5.70466">
        <ele>543</ele>
        <time>2018-03-01T19:04:11Z</time>
      </trkpt>
      <trkpt lat="46.49131" lon="5.7047">
        <ele>543</ele>
        <time>2018-03-01T19:05:11Z</time>
      </trkpt>
      <trkpt lat="46.49177" lon="5.70521">
        <ele>542</ele>
        <time>2018-03-01T19:06:11Z</time>
      </trkpt>
      <trkpt lat="46.49189" lon="5.7054">
        <ele>542</ele>
        <time>2018-03-01T19:07:11Z</time>
      </trkpt>
      <trkpt lat="46.49222" lon="5.70602">
        <ele>543</ele>
        <time>2018-03-01T19:08:11Z</time>
      </trkpt>
      <trkpt lat="46.49309" lon="5.70841">
        <ele>549</ele>
        <time>2018-03-01T19:09:11Z</time>
      </trkpt>
      <trkpt lat="46.49353" lon="5.70969">
        <ele>552</ele>
        <time>2018-03-01T19:10:11Z</time>
      </trkpt>
      <trkpt lat="46.49364" lon="5.71025">
        <ele>552</ele>
        <time>2018-03-01T19:11:11Z</time>
      </trkpt>
      <trkpt lat="46.49374" lon="5.71097">
        <ele>552</ele>
        <time>2018-03-01T19:12:11Z</time>
      </trkpt>
      <trkpt lat="46.49394" lon="5.71192">
        <ele>553</ele>
        <time>2018-03-01T19:13:11Z</time>
      </trkpt>
      <trkpt lat="46.4942" lon="5.71249">
        <ele>554</ele>
        <time>2018-03-01T19:14:11Z</time>
      </trkpt>
      <trkpt lat="46.49458" lon="5.71323">
        <ele>553</ele>
        <time>2018-03-01T19:15:11Z</time>
      </trkpt>
      <trkpt lat="46.49638" lon="5.71598">
        <ele>561</ele>
        <time>2018-03-01T19:16:11Z</time>
      </trkpt>
      <trkpt lat="46.49652" lon="5.71626">
        <ele>563</ele>
        <time>2018-03-01T19:17:11Z</time>
      </trkpt>
      <trkpt lat="46.49663" lon="5.71636">
        <ele>564</ele>
        <time>2018-03-01T19:18:11Z</time>
      </trkpt>
      <trkpt lat="46.49696" lon="5.71659">
        <ele>566</ele>
        <time>2018-03-01T19:19:11Z</time>
      </trkpt>
      <trkpt lat="46.49737" lon="5.71692">
        <ele>569</ele>
        <time>2018-03-01T19:20:11Z</time>
      </trkpt>
      <trkpt lat="46.49756" lon="5.71711">
        <ele>570</ele>
        <time>2018-03-01T19:21:11Z</time>
      </trkpt>
      <trkpt lat="46.49765" lon="5.71725">
        <ele>571</ele>
        <time>2018-03-01T19:22:11Z</time>
      </trkpt>
      <trkpt lat="46.49779" lon="5.7176">
        <ele>573</ele>
        <time>2018-03-01T19:23:11Z</time>
      </trkpt>
      <trkpt lat="46.49799" lon="5.7182">
        <ele>577</ele>
        <time>2018-03-01T19:24:11Z</time>
      </trkpt>
      <trkpt lat="46.4982" lon="5.71847">
        <ele>579</ele>
        <time>2018-03-01T19:25:11Z</time>
      </trkpt>
      <trkpt lat="46.49855" lon="5.71854">
        <ele>580</ele>
        <time>2018-03-01T19:26:11Z</time>
      </trkpt>
      <trkpt lat="46.49887" lon="5.71865">
        <ele>582</ele>
        <time>2018-03-01T19:27:11Z</time>
      </trkpt>
      <trkpt lat="46.49922" lon="5.71866">
        <ele>583</ele>
        <time>2018-03-01T19:28:11Z</time>
      </trkpt>
      <trkpt lat="46.49957" lon="5.71855">
        <ele>582</ele>
        <time>2018-03-01T19:29:11Z</time>
      </trkpt>
      <trkpt lat="46.49994" lon="5.7185">
        <ele>581</ele>
        <time>2018-03-01T19:30:11Z</time>
      </trkpt>
      <trkpt lat="46.49994" lon="5.7185">
        <ele>581</ele>
        <time>2018-03-01T19:31:11Z</time>
      </trkpt>
      <trkpt lat="46.50002" lon="5.71848">
        <ele>581</ele>
        <time>2018-03-01T19:32:11Z</time>
      </trkpt>
      <trkpt lat="46.50003" lon="5.71868">
        <ele>583</ele>
        <time>2018-03-01T19:33:11Z</time>
      </trkpt>
      <trkpt lat="46.50008" lon="5.71888">
        <ele>584</ele>
        <time>2018-03-01T19:34:11Z</time>
      </trkpt>
      <trkpt lat="46.5001" lon="5.7191">
        <ele>586</ele>
        <time>2018-03-01T19:35:11Z</time>
      </trkpt>
      <trkpt lat="46.49999" lon="5.71939">
        <ele>586</ele>
        <time>2018-03-01T19:36:11Z</time>
      </trkpt>
      <trkpt lat="46.49965" lon="5.72053">
        <ele>586</ele>
        <time>2018-03-01T19:37:11Z</time>
      </trkpt>
      <trkpt lat="46.49944" lon="5.7211">
        <ele>586</ele>
        <time>2018-03-01T19:38:11Z</time>
      </trkpt>
      <trkpt lat="46.49939" lon="5.72126">
        <ele>586</ele>
        <time>2018-03-01T19:39:11Z</time>
      </trkpt>
      <trkpt lat="46.49932" lon="5.72165">
        <ele>584</ele>
        <time>2018-03-01T19:40:11Z</time>
      </trkpt>
      <trkpt lat="46.49938" lon="5.72213">
        <ele>584</ele>
        <time>2018-03-01T19:41:11Z</time>
      </trkpt>
      <trkpt lat="46.49961" lon="5.72198">
        <ele>583</ele>
        <time>2018-03-01T19:42:11Z</time>
      </trkpt>
      <trkpt lat="46.4999" lon="5.72165">
        <ele>581</ele>
        <time>2018-03-01T19:43:11Z</time>
      </trkpt>
      <trkpt lat="46.50009" lon="5.72139">
        <ele>581</ele>
        <time>2018-03-01T19:44:11Z</time>
      </trkpt>
      <trkpt lat="46.50031" lon="5.72094">
        <ele>580</ele>
        <time>2018-03-01T19:45:11Z</time>
      </trkpt>
      <trkpt lat="46.50051" lon="5.72076">
        <ele>580</ele>
        <time>2018-03-01T19:46:11Z</time>
      </trkpt>
      <trkpt lat="46.50051" lon="5.72076">
        <ele>580</ele>
        <time>2018-03-01T19:47:11Z</time>
      </trkpt>
      <trkpt lat="46.501" lon="5.72018">
        <ele>578</ele>
        <time>2018-03-01T19:48:11Z</time>
      </trkpt>
      <trkpt lat="46.50133" lon="5.71989">
        <ele>577</ele>
        <time>2018-03-01T19:49:11Z</time>
      </trkpt>
      <trkpt lat="46.50166" lon="5.71973">
        <ele>576</ele>
        <time>2018-03-01T19:50:11Z</time>
      </trkpt>
      <trkpt lat="46.50195" lon="5.71972">
        <ele>576</ele>
        <time>2018-03-01T19:51:11Z</time>
      </trkpt>
      <trkpt lat="46.5024" lon="5.71981">
        <ele>577</ele>
        <time>2018-03-01T19:52:11Z</time>
      </trkpt>
      <trkpt lat="46.50272" lon="5.71977">
        <ele>577</ele>
        <time>2018-03-01T19:53:11Z</time>
      </trkpt>
      <trkpt lat="46.50339" lon="5.71953">
        <ele>573</ele>
        <time>2018-03-01T19:54:11Z</time>
      </trkpt>
      <trkpt lat="46.50391" lon="5.71931">
        <ele>567</ele>
        <time>2018-03-01T19:55:11Z</time>
      </trkpt>
      <trkpt lat="46.50432" lon="5.71923">
        <ele>564</ele>
        <time>2018-03-01T19:56:11Z</time>
      </trkpt>
      <trkpt lat="46.50455" lon="5.71928">
        <ele>564</ele>
        <time>2018-03-01T19:57:11Z</time>
      </trkpt>
      <trkpt lat="46.50471" lon="5.71935">
        <ele>565</ele>
        <time>2018-03-01T19:58:11Z</time>
      </trkpt>
      <trkpt lat="46.50526" lon="5.71945">
        <ele>565</ele>
        <time>2018-03-01T19:59:11Z</time>
      </trkpt>
      <trkpt lat="46.50566" lon="5.71961">
        <ele>565</ele>
        <time>2018-03-01T20:00:11Z</time>
      </trkpt>
      <trkpt lat="46.5059" lon="5.71988">
        <ele>567</ele>
        <time>2018-03-01T20:01:11Z</time>
      </trkpt>
      <trkpt lat="46.50596" lon="5.72013">
        <ele>567</ele>
        <time>2018-03-01T20:02:11Z</time>
      </trkpt>
      <trkpt lat="46.50598" lon="5.72066">
        <ele>568</ele>
        <time>2018-03-01T20:03:11Z</time>
      </trkpt>
      <trkpt lat="46.506" lon="5.72079">
        <ele>569</ele>
        <time>2018-03-01T20:04:11Z</time>
      </trkpt>
      <trkpt lat="46.50669" lon="5.72067">
        <ele>571</ele>
        <time>2018-03-01T20:05:11Z</time>
      </trkpt>
      <trkpt lat="46.50711" lon="5.72074">
        <ele>569</ele>
        <time>2018-03-01T20:06:11Z</time>
      </trkpt>
      <trkpt lat="46.50758" lon="5.72087">
        <ele>567</ele>
        <time>2018-03-01T20:07:11Z</time>
      </trkpt>
      <trkpt lat="46.5079" lon="5.72102">
        <ele>564</ele>
        <time>2018-03-01T20:08:11Z</time>
      </trkpt>
      <trkpt lat="46.50819" lon="5.72112">
        <ele>562</ele>
        <time>2018-03-01T20:09:11Z</time>
      </trkpt>
      <trkpt lat="46.5087" lon="5.7211">
        <ele>558</ele>
        <time>2018-03-01T20:10:11Z</time>
      </trkpt>
      <trkpt lat="46.50884" lon="5.721">
        <ele>557</ele>
        <time>2018-03-01T20:11:11Z</time>
      </trkpt>
      <trkpt lat="46.50893" lon="5.72096">
        <ele>556</ele>
        <time>2018-03-01T20:12:11Z</time>
      </trkpt>
      <trkpt lat="46.50901" lon="5.72096">
        <ele>556</ele>
        <time>2018-03-01T20:13:11Z</time>
      </trkpt>
      <trkpt lat="46.50916" lon="5.721">
        <ele>555</ele>
        <time>2018-03-01T20:14:11Z</time>
      </trkpt>
      <trkpt lat="46.50933" lon="5.72113">
        <ele>554</ele>
        <time>2018-03-01T20:15:11Z</time>
      </trkpt>
      <trkpt lat="46.50962" lon="5.72145">
        <ele>552</ele>
        <time>2018-03-01T20:16:11Z</time>
      </trkpt>
      <trkpt lat="46.50993" lon="5.72128">
        <ele>549</ele>
        <time>2018-03-01T20:17:11Z</time>
      </trkpt>
      <trkpt lat="46.51013" lon="5.72124">
        <ele>548</ele>
        <time>2018-03-01T20:18:11Z</time>
      </trkpt>
      <trkpt lat="46.51028" lon="5.72124">
        <ele>548</ele>
        <time>2018-03-01T20:19:11Z</time>
      </trkpt>
      <trkpt lat="46.51064" lon="5.72092">
        <ele>544</ele>
        <time>2018-03-01T20:20:11Z</time>
      </trkpt>
      <trkpt lat="46.51097" lon="5.72081">
        <ele>542</ele>
        <time>2018-03-01T20:21:11Z</time>
      </trkpt>
      <trkpt lat="46.51215" lon="5.72056">
        <ele>541</ele>
        <time>2018-03-01T20:22:11Z</time>
      </trkpt>
      <trkpt lat="46.51231" lon="5.72062">
        <ele>542</ele>
        <time>2018-03-01T20:23:11Z</time>
      </trkpt>
      <trkpt lat="46.5127" lon="5.72101">
        <ele>546</ele>
        <time>2018-03-01T20:24:11Z</time>
      </trkpt>
      <trkpt lat="46.5128" lon="5.72106">
        <ele>546</ele>
        <time>2018-03-01T20:25:11Z</time>
      </trkpt>
      <trkpt lat="46.51308" lon="5.72099">
        <ele>546</ele>
        <time>2018-03-01T20:26:11Z</time>
      </trkpt>
      <trkpt lat="46.5137" lon="5.72063">
        <ele>544</ele>
        <time>2018-03-01T20:27:11Z</time>
      </trkpt>
      <trkpt lat="46.51441" lon="5.72039">
        <ele>544</ele>
        <time>2018-03-01T20:28:11Z</time>
      </trkpt>
      <trkpt lat="46.51455" lon="5.72031">
        <ele>544</ele>
        <time>2018-03-01T20:29:11Z</time>
      </trkpt>
      <trkpt lat="46.51461" lon="5.72039">
        <ele>544</ele>
        <time>2018-03-01T20:30:11Z</time>
      </trkpt>
      <trkpt lat="46.51461" lon="5.72039">
        <ele>544</ele>
        <time>2018-03-01T20:31:11Z</time>
      </trkpt>
      <trkpt lat="46.51455" lon="5.72031">
        <ele>544</ele>
        <time>2018-03-01T20:32:11Z</time>
      </trkpt>
      <trkpt lat="46.51422" lon="5.71963">
        <ele>544</ele>
        <time>2018-03-01T20:33:11Z</time>
      </trkpt>
      <trkpt lat="46.51398" lon="5.71947">
        <ele>542</ele>
        <time>2018-03-01T20:34:11Z</time>
      </trkpt>
      <trkpt lat="46.51352" lon="5.71938">
        <ele>539</ele>
        <time>2018-03-01T20:35:11Z</time>
      </trkpt>
      <trkpt lat="46.51312" lon="5.71925">
        <ele>537</ele>
        <time>2018-03-01T20:36:11Z</time>
      </trkpt>
      <trkpt lat="46.51299" lon="5.71916">
        <ele>537</ele>
        <time>2018-03-01T20:37:11Z</time>
      </trkpt>
      <trkpt lat="46.5125" lon="5.71874">
        <ele>538</ele>
        <time>2018-03-01T20:38:11Z</time>
      </trkpt>
      <trkpt lat="46.51233" lon="5.71855">
        <ele>538</ele>
        <time>2018-03-01T20:39:11Z</time>
      </trkpt>
      <trkpt lat="46.51209" lon="5.71769">
        <ele>539</ele>
        <time>2018-03-01T20:40:11Z</time>
      </trkpt>
      <trkpt lat="46.51186" lon="5.71638">
        <ele>539</ele>
        <time>2018-03-01T20:41:11Z</time>
      </trkpt>
      <trkpt lat="46.51179" lon="5.7161">
        <ele>539</ele>
        <time>2018-03-01T20:42:11Z</time>
      </trkpt>
      <trkpt lat="46.51164" lon="5.71576">
        <ele>539</ele>
        <time>2018-03-01T20:43:11Z</time>
      </trkpt>
      <trkpt lat="46.51157" lon="5.71543">
        <ele>540</ele>
        <time>2018-03-01T20:44:11Z</time>
      </trkpt>
      <trkpt lat="46.51159" lon="5.71524">
        <ele>540</ele>
        <time>2018-03-01T20:45:11Z</time>
      </trkpt>
      <trkpt lat="46.51182" lon="5.7142">
        <ele>540</ele>
        <time>2018-03-01T20:46:11Z</time>
      </trkpt>
      <trkpt lat="46.51186" lon="5.71359">
        <ele>540</ele>
        <time>2018-03-01T20:47:11Z</time>
      </trkpt>
      <trkpt lat="46.51185" lon="5.71315">
        <ele>540</ele>
        <time>2018-03-01T20:48:11Z</time>
      </trkpt>
      <trkpt lat="46.51189" lon="5.71291">
        <ele>540</ele>
        <time>2018-03-01T20:49:11Z</time>
      </trkpt>
      <trkpt lat="46.512" lon="5.71245">
        <ele>540</ele>
        <time>2018-03-01T20:50:11Z</time>
      </trkpt>
      <trkpt lat="46.51203" lon="5.71212">
        <ele>540</ele>
        <time>2018-03-01T20:51:11Z</time>
      </trkpt>
      <trkpt lat="46.51199" lon="5.71167">
        <ele>540</ele>
        <time>2018-03-01T20:52:11Z</time>
      </trkpt>
      <trkpt lat="46.51191" lon="5.71114">
        <ele>542</ele>
        <time>2018-03-01T20:53:11Z</time>
      </trkpt>
      <trkpt lat="46.51172" lon="5.7107">
        <ele>543</ele>
        <time>2018-03-01T20:54:11Z</time>
      </trkpt>
      <trkpt lat="46.51166" lon="5.71058">
        <ele>543</ele>
        <time>2018-03-01T20:55:11Z</time>
      </trkpt>
      <trkpt lat="46.51169" lon="5.71013">
        <ele>542</ele>
        <time>2018-03-01T20:56:11Z</time>
      </trkpt>
      <trkpt lat="46.51211" lon="5.7092">
        <ele>541</ele>
        <time>2018-03-01T20:57:11Z</time>
      </trkpt>
      <trkpt lat="46.51228" lon="5.70871">
        <ele>539</ele>
        <time>2018-03-01T20:58:11Z</time>
      </trkpt>
      <trkpt lat="46.51228" lon="5.70846">
        <ele>538</ele>
        <time>2018-03-01T20:59:11Z</time>
      </trkpt>
      <trkpt lat="46.51221" lon="5.70827">
        <ele>537</ele>
        <time>2018-03-01T21:00:11Z</time>
      </trkpt>
      <trkpt lat="46.51215" lon="5.70817">
        <ele>537</ele>
        <time>2018-03-01T21:01:11Z</time>
      </trkpt>
      <trkpt lat="46.51151" lon="5.70772">
        <ele>535</ele>
        <time>2018-03-01T21:02:11Z</time>
      </trkpt>
      <trkpt lat="46.51129" lon="5.70742">
        <ele>535</ele>
        <time>2018-03-01T21:03:11Z</time>
      </trkpt>
      <trkpt lat="46.51117" lon="5.70719">
        <ele>534</ele>
        <time>2018-03-01T21:04:11Z</time>
      </trkpt>
      <trkpt lat="46.51114" lon="5.70704">
        <ele>534</ele>
        <time>2018-03-01T21:05:11Z</time>
      </trkpt>
      <trkpt lat="46.51117" lon="5.70684">
        <ele>533</ele>
        <time>2018-03-01T21:06:11Z</time>
      </trkpt>
      <trkpt lat="46.51117" lon="5.70655">
        <ele>533</ele>
        <time>2018-03-01T21:07:11Z</time>
      </trkpt>
      <trkpt lat="46.51112" lon="5.70637">
        <ele>533</ele>
        <time>2018-03-01T21:08:11Z</time>
      </trkpt>
      <trkpt lat="46.51047" lon="5.70515">
        <ele>535</ele>
        <time>2018-03-01T21:09:11Z</time>
      </trkpt>
      <trkpt lat="46.51037" lon="5.70487">
        <ele>535</ele>
        <time>2018-03-01T21:10:11Z</time>
      </trkpt>
    </trkseg>
  </trk>
</gpx>